Latest Weather Observations for Bellambi

IDN60901

Issued at 8:31 pm EDT Saturday 25 March 2017 (issued every 10 minutes, with the page automatically refreshed every 10 minutes)

About weather observations | Map of Sydney area stations | Latest observations for Sydney area | Other Formats
Station Details ID: 068228 Name: BELLAMBI AWS Lat: -34.37 Lon: 150.93 Height: 10.0 m
Data from the previous 72 hours. | See also: Recent months at Bellambi
Date/Time
EDT
Temp
°C
App
Temp
°C
Dew
Point
°C
Rel
Hum
%
Delta-T
°C
Wind Press
QNH
hPa
Press
MSL
hPa
Rain since
9am
mm
Dir  Spd
km/h
Gust
km/h
Spd
kts
Gust
kts
25/08:30pm 20.3 22.1 18.4 89 1.2 NNW 6 11 3 6 - - 4.2
25/08:00pm 20.5 21.9 18.6 89 1.2 N 9 11 5 6 - - 4.2
25/07:30pm 20.3 23.0 18.6 90 1.1 NW 2 7 1 4 - - 4.2
25/07:00pm 20.0 22.6 18.5 91 0.9 WSW 2 7 1 4 - - 4.2
25/06:30pm 20.1 21.8 18.6 91 0.9 WSW 7 11 4 6 - - 4.2
25/06:00pm 20.0 21.6 18.3 90 1.1 SW 7 9 4 5 - - 4.2
25/05:30pm 20.3 22.4 18.2 88 1.3 W 4 9 2 5 - - 4.0
25/05:00pm 20.2 21.3 18.0 87 1.4 NNE 9 13 5 7 - - 4.0
25/04:30pm 20.1 21.7 17.9 87 1.4 N 6 9 3 5 - - 4.0
25/04:00pm 20.0 21.5 17.6 86 1.5 ENE 6 7 3 4 - - 4.0
25/03:30pm 20.0 20.9 17.6 86 1.5 ENE 9 11 5 6 - - 3.8
25/03:00pm 20.6 20.9 17.8 84 1.7 NNE 13 19 7 10 - - 1.8
25/02:30pm 21.3 19.7 17.5 79 2.3 ENE 22 24 12 13 - - 0.2
25/02:00pm 22.3 22.2 17.0 72 3.2 NE 13 20 7 11 - - 0.0
25/01:30pm 22.8 21.7 17.3 71 3.4 NNE 19 24 10 13 - - 0.0
25/01:00pm 23.7 22.8 17.7 69 3.7 NE 19 22 10 12 - - 0.0
25/12:30pm 22.4 21.8 16.7 70 3.5 NNE 15 20 8 11 - - 0.0
25/12:00pm 22.6 21.9 16.4 68 3.8 NNE 15 20 8 11 - - 0.0
25/11:30am 22.1 21.1 15.7 67 3.8 NNE 15 19 8 10 - - 0.0
25/11:00am 21.8 21.0 15.2 66 3.9 N 13 17 7 9 - - 0.0
25/10:30am 22.0 21.0 15.6 67 3.8 N 15 19 8 10 - - 0.0
25/10:00am 21.4 21.3 15.9 71 3.3 NNE 11 15 6 8 - - 0.0
25/09:30am 21.4 20.7 15.5 69 3.5 N 13 17 7 9 - - 0.0
25/09:00am 20.4 19.8 15.6 74 2.9 NNW 13 17 7 9 - - 0.4
25/08:30am 19.7 20.1 15.4 76 2.5 N 7 11 4 6 - - 0.4
25/08:00am 18.4 19.6 14.9 80 2.0 WNW 2 6 1 3 - - 0.4
25/07:30am 18.4 18.0 15.3 82 1.8 NNW 11 13 6 7 - - 0.4
25/07:00am 18.1 18.5 15.2 83 1.7 NW 7 9 4 5 - - 0.4
25/06:30am 18.2 18.6 15.3 83 1.7 NW 7 9 4 5 - - 0.4
25/06:00am 18.2 18.9 15.6 85 1.5 NW 6 9 3 5 - - 0.4
25/05:30am 18.2 18.6 15.3 83 1.7 W 7 9 4 5 - - 0.4
25/05:00am 18.3 18.9 15.7 85 1.5 NW 7 9 4 5 - - 0.4
25/04:30am 18.3 18.9 15.7 85 1.5 W 7 9 4 5 - - 0.4
25/04:00am 18.4 19.0 15.8 85 1.5 W 7 9 4 5 - - 0.4
25/03:30am 18.6 18.8 15.7 83 1.7 W 9 11 5 6 - - 0.4
25/03:00am 18.7 19.0 16.1 85 1.5 NW 9 13 5 7 - - 0.4
25/02:30am 18.6 18.8 15.8 84 1.7 NW 9 11 5 6 - - 0.4
25/02:00am 18.8 20.9 16.2 85 1.6 CALM 0 0 0 0 - - 0.4
25/01:30am 18.6 20.5 15.8 84 1.7 CALM 0 0 0 0 - - 0.4
25/01:00am 18.5 19.1 15.9 85 1.5 WNW 7 7 4 4 - - 0.4
25/12:30am 18.6 18.5 16.0 85 1.5 SW 11 13 6 7 - - 0.4
25/12:00am 18.5 18.4 15.9 85 1.5 SW 11 13 6 7 - - 0.4
 
Date/Time
EDT
Temp
°C
App
Temp
°C
Dew
Point
°C
Rel
Hum
%
Delta-T
°C
Wind Press
QNH
hPa
Press
MSL
hPa
Rain since
9am
mm
Dir  Spd
km/h
Gust
km/h
Spd
kts
Gust
kts
24/11:30pm 18.6 19.0 16.2 86 1.4 WSW 9 11 5 6 - - 0.4
24/11:00pm 18.5 18.8 16.1 86 1.4 WSW 9 9 5 5 - - 0.4
24/10:30pm 18.7 19.6 16.5 87 1.3 WSW 7 9 4 5 - - 0.4
24/10:00pm 18.7 19.3 16.7 88 1.2 WSW 9 11 5 6 - - 0.4
24/09:30pm 18.8 19.4 16.9 89 1.1 WSW 9 11 5 6 - - 0.4
24/09:00pm 18.8 19.4 16.9 89 1.1 SW 9 13 5 7 - - 0.4
24/08:30pm 18.9 19.2 17.0 89 1.1 WSW 11 13 6 7 - - 0.4
24/08:00pm 19.1 21.5 17.1 88 1.2 CALM 0 6 0 3 - - 0.4
24/07:30pm 19.3 21.3 16.9 86 1.5 WNW 2 7 1 4 - - 0.4
24/07:00pm 19.3 19.9 16.7 85 1.6 NNW 9 11 5 6 - - 0.4
24/06:30pm 19.2 19.0 16.8 86 1.4 NNE 13 17 7 9 - - 0.4
24/06:00pm 19.1 19.7 16.7 86 1.4 ENE 9 13 5 7 - - 0.4
24/05:30pm 19.4 18.6 17.0 86 1.5 S 17 24 9 13 - - 0.2
24/05:00pm 19.8 19.4 17.2 85 1.6 S 15 20 8 11 - - 0.2
24/04:30pm 19.9 19.4 17.7 87 1.4 S 17 20 9 11 - - 0.2
24/04:00pm 21.1 18.7 17.3 79 2.3 S 26 35 14 19 - - 0.0
24/03:30pm 21.6 20.5 17.2 76 2.7 S 19 24 10 13 - - 0.0
24/03:00pm 22.0 20.8 17.4 75 2.8 S 20 24 11 13 - - 0.0
24/02:30pm 22.4 21.4 16.7 70 3.5 SSW 17 20 9 11 - - 0.0
24/02:00pm 21.9 22.2 17.1 74 2.9 SSW 11 15 6 8 - - 0.0
24/01:30pm 20.7 21.3 16.7 78 2.4 W 9 15 5 8 - - 0.0
24/01:00pm 19.9 17.5 16.5 81 2.0 SSW 24 32 13 17 - - 0.0
24/12:30pm 20.8 16.9 17.0 79 2.3 S 33 43 18 23 - - 0.0
24/12:00pm 21.6 18.2 17.6 78 2.5 S 32 41 17 22 - - 0.0
24/11:30am 22.0 20.5 17.6 76 2.7 S 22 28 12 15 - - 0.0
24/11:00am 21.8 20.3 17.6 77 2.6 S 22 26 12 14 - - 0.0
24/10:30am 21.5 20.3 17.5 78 2.5 S 20 26 11 14 - - 0.0
24/10:00am 21.2 20.5 17.4 79 2.3 SSW 17 24 9 13 - - 0.0
24/09:30am 20.5 19.8 17.3 82 2.0 SSW 17 22 9 12 - - 0.0
24/09:00am 19.9 19.2 17.3 85 1.6 SW 17 24 9 13 - - 8.8
24/08:30am 19.4 18.9 17.0 86 1.5 SW 15 24 8 13 - - 8.8
24/08:00am 18.3 17.9 16.1 87 1.3 SW 13 17 7 9 - - 8.8
24/07:30am 17.7 17.1 15.7 88 1.2 SW 13 15 7 8 - - 8.8
24/07:00am 18.1 17.7 16.1 88 1.2 SW 13 19 7 10 - - 8.8
24/06:30am 18.2 17.5 16.4 89 1.1 SW 15 22 8 12 - - 8.8
24/06:00am 18.1 17.1 16.6 91 0.9 SW 17 20 9 11 - - 8.8
24/05:30am 18.0 17.7 16.5 91 0.9 SW 13 17 7 9 - - 8.8
24/05:00am 18.0 17.8 16.7 92 0.8 WSW 13 17 7 9 - - 8.8
24/04:30am 18.0 17.4 16.7 92 0.8 WSW 15 19 8 10 - - 8.8
24/04:00am 17.9 17.0 16.8 93 0.7 SW 17 24 9 13 - - 8.8
24/03:30am 18.1 17.6 17.0 93 0.7 SW 15 19 8 10 - - 8.8
24/03:00am 17.9 18.2 16.9 94 0.6 WSW 11 15 6 8 - - 8.8
24/02:30am 17.9 17.0 16.9 94 0.6 SW 17 22 9 12 - - 8.8
24/02:29am 17.9 17.0 16.9 94 0.6 SW 17 22 9 12 - - 8.8
24/02:00am 18.0 16.6 17.0 94 0.6 SW 20 26 11 14 - - 8.8
24/01:41am 18.4 18.1 17.4 94 0.6 SW 15 20 8 11 - - 7.8
24/01:30am 18.4 18.5 17.4 94 0.6 WSW 13 17 7 9 - - 7.4
24/01:00am 18.3 17.5 17.1 93 0.7 SW 17 24 9 13 - - 7.4
24/12:37am 18.4 18.0 17.2 93 0.7 SW 15 20 8 11 - - 7.4
24/12:30am 18.5 18.1 17.2 92 0.8 SW 15 20 8 11 - - 7.4
24/12:07am 19.4 20.2 18.1 92 0.8 S 11 15 6 8 - - 7.4
24/12:00am 19.8 20.0 18.5 92 0.8 SSE 15 20 8 11 - - 7.4
 
Date/Time
EDT
Temp
°C
App
Temp
°C
Dew
Point
°C
Rel
Hum
%
Delta-T
°C
Wind Press
QNH
hPa
Press
MSL
hPa
Rain since
9am
mm
Dir  Spd
km/h
Gust
km/h
Spd
kts
Gust
kts
23/11:30pm 19.4 18.3 17.7 90 1.0 SSE 20 26 11 14 - - 7.0
23/11:27pm 19.1 17.5 17.4 90 1.0 SSE 22 28 12 15 - - 7.0
23/11:00pm 18.5 14.0 17.3 93 0.7 SSE 37 46 20 25 - - 7.0
23/10:55pm 19.1 14.9 18.1 94 0.6 S 37 46 20 25 - - 7.0
23/10:48pm 18.6 16.2 17.4 93 0.7 SSW 26 46 14 25 - - 6.4
23/10:36pm 18.5 17.4 17.2 92 0.8 SW 19 28 10 15 - - 5.6
23/10:30pm 18.5 17.7 17.0 91 0.9 SW 17 24 9 13 - - 5.6
23/10:00pm 18.5 18.5 17.2 92 0.8 SW 13 17 7 9 - - 5.6
23/09:30pm 18.7 18.8 17.4 92 0.8 SW 13 20 7 11 - - 5.4
23/09:00pm 19.0 17.9 17.7 92 0.8 SSW 20 28 11 15 - - 5.4
23/08:30pm 18.8 18.9 17.5 92 0.8 SW 13 17 7 9 - - 5.4
23/08:00pm 19.2 18.0 17.5 90 1.0 SW 20 30 11 16 - - 5.2
23/07:30pm 19.1 19.4 17.9 93 0.7 SW 13 17 7 9 - - 5.2
23/07:00pm 19.1 19.4 17.8 92 0.8 SW 13 20 7 11 - - 5.2
23/06:30pm 19.4 19.8 18.2 93 0.7 SW 13 19 7 10 - - 5.2
23/06:00pm 19.1 19.0 17.8 92 0.8 SW 15 19 8 10 - - 4.8
23/05:50pm 19.3 18.5 18.0 92 0.8 SW 19 28 10 15 - - 4.6
23/05:30pm 19.6 18.9 18.3 92 0.8 SSW 19 26 10 14 - - 4.2
23/05:00pm 19.6 19.7 18.3 92 0.8 SW 15 20 8 11 - - 3.6
23/04:49pm 19.5 18.8 18.2 92 0.8 SSW 19 24 10 13 - - 3.0
23/04:30pm 19.6 18.4 18.3 92 0.8 SSW 22 30 12 16 - - 2.8
23/04:00pm 19.6 18.7 18.3 92 0.8 SSW 20 28 11 15 - - 2.4
23/03:30pm 19.7 19.5 18.4 92 0.8 SW 17 22 9 12 - - 2.0
23/03:00pm 19.7 20.2 18.4 92 0.8 SW 13 22 7 12 - - 1.4
23/02:30pm 19.7 17.6 18.0 90 1.0 S 26 32 14 17 - - 0.6
23/02:00pm 21.1 19.5 17.5 80 2.2 S 22 26 12 14 - - 0.0
23/01:30pm 21.2 19.6 17.4 79 2.3 S 22 28 12 15 - - 0.0
23/01:00pm 21.6 19.2 17.4 77 2.6 S 26 32 14 17 - - 0.0
23/12:30pm 22.1 19.8 17.5 75 2.8 S 26 32 14 17 - - 0.0
23/12:00pm 22.2 20.1 17.1 73 3.1 SSW 24 30 13 16 - - 0.0
23/11:30am 22.0 19.2 17.2 74 2.9 SSW 28 33 15 18 - - 0.0
23/11:00am 21.7 19.6 17.1 75 2.8 SSW 24 33 13 18 - - 0.0
23/10:30am 21.7 19.6 17.1 75 2.8 SW 24 32 13 17 - - 0.0
23/10:00am 22.0 19.2 17.2 74 2.9 SSW 28 37 15 20 - - 0.0
23/09:30am 21.3 18.7 16.9 76 2.7 SSW 26 35 14 19 - - 0.0
23/09:00am 20.7 17.7 16.9 79 2.3 SSW 28 35 15 19 - - 17.2
23/08:30am 19.9 18.2 16.3 80 2.2 SW 20 30 11 16 - - 17.2
23/08:00am 20.0 18.8 16.2 79 2.3 SW 17 24 9 13 - - 17.2
23/07:30am 19.9 18.3 16.5 81 2.0 SW 20 28 11 15 - - 17.2
23/07:00am 19.7 18.2 16.3 81 2.0 SW 19 24 10 13 - - 17.2
23/06:30am 19.7 18.2 16.3 81 2.0 SW 19 26 10 14 - - 17.2
23/06:00am 19.9 17.9 16.5 81 2.0 SW 22 30 12 16 - - 17.2
23/05:30am 19.8 18.8 16.6 82 1.9 SW 17 30 9 16 - - 17.2
23/05:00am 20.0 19.0 16.6 81 2.1 SW 17 26 9 14 - - 17.2
23/04:30am 20.0 18.6 16.6 81 2.1 SW 19 30 10 16 - - 17.2
23/04:00am 20.0 18.9 16.4 80 2.2 SW 17 24 9 13 - - 17.2
23/03:30am 20.1 18.8 16.9 82 1.9 SW 19 26 10 14 - - 17.2
23/03:00am 20.3 19.0 16.7 80 2.2 SW 19 28 10 15 - - 17.2
23/02:30am 20.2 19.1 17.4 84 1.7 SSW 19 24 10 13 - - 17.2
23/02:00am 20.4 17.4 17.8 85 1.6 SSW 30 37 16 20 - - 17.2
23/01:30am 20.4 15.3 17.8 85 1.6 SSW 41 52 22 28 - - 17.2
23/01:00am 20.6 17.3 18.0 85 1.6 SSW 32 41 17 22 - - 17.2
23/12:30am 20.7 17.9 18.3 86 1.5 SSW 30 39 16 21 - - 17.2
23/12:00am 20.7 18.0 18.5 87 1.4 SSW 30 39 16 21 - - 17.2
 
Date/Time
EDT
Temp
°C
App
Temp
°C
Dew
Point
°C
Rel
Hum
%
Delta-T
°C
Wind Press
QNH
hPa
Press
MSL
hPa
Rain since
9am
mm
Dir  Spd
km/h
Gust
km/h
Spd
kts
Gust
kts
22/11:30pm 20.6 19.2 18.7 89 1.2 SSW 24 33 13 18 - - 17.2
22/11:00pm 20.5 20.0 19.2 92 0.8 SW 20 32 11 17 - - 17.2
22/10:30pm 20.5 18.9 19.2 92 0.8 SSW 26 30 14 16 - - 17.0
22/10:00pm 20.9 18.2 19.6 92 0.8 SSW 33 39 18 21 - - 16.8
22/09:52pm 21.0 18.2 19.5 91 1.0 SSW 33 39 18 21 - - 16.8
22/09:42pm 21.2 17.7 19.5 90 1.1 SSW 37 46 20 25 - - 16.8
22/09:30pm 21.5 18.9 20.0 91 1.0 SSW 33 41 18 22 - - 16.8
22/09:23pm 21.6 19.3 20.1 91 1.0 SSW 32 41 17 22 - - 16.8
22/09:00pm 21.7 19.5 20.3 92 0.9 SSW 32 39 17 21 - - 16.8

Latest Capital City Observations: Canberra | Sydney | Melbourne | Brisbane | Adelaide | Perth | Hobart | Darwin

Other Formats:

Comma delimited format used in spreadsheet applications
http://www.bom.gov.au/fwo/IDN60901/IDN60901.94749.axf

JavaScript Object Notation format (JSON) in row-major order
http://www.bom.gov.au/fwo/IDN60901/IDN60901.94749.json